Tiempo atmosférico en la estación meteorológica de La Orotava, Cañadas Teide, Santa Cruz de Tenerife (2150 m.)



Fecha
DESCASC
Temp. máxima en grados centígrados (hora)
DESCASC
Temp. mínima en grados centígrados (hora)
DESCASC
Temp. media en grados centígrados
DESCASC
Racha de viento máxima en m/sg (hora)
DESCASC
Velocidad máxima media en intervalos de 10 minutos(hora)
DESCASC
Precipitaciones diarias en mm
DESCASC
Precipitaciones de 00:00 a 06:00 en mm
DESCASC
Precipitaciones de 06:00 a 12:00 en mm
DESCASC
Precipitaciones de 12:00 a 18:00 en mm
DESCASC
Precipitaciones de 18:00 a 24:00 en mm
DESCASC
22-04-2019 17.9 (15:20) 3.5 (03:50) 10.7 17.22 (11:50) 9.44 (13:20) 0 0 0 0 0
21-04-2019 17.2 (13:30) 3.7 (04:20) 10.5 15 (14:50) 10.28 (06:10) 0 0 0 0 0
20-04-2019 21.5 (14:00) 4.3 (05:20) 12.9 13.89 (00:10) 9.17 (00:10) 0 0 0 0 0
19-04-2019 21.6 (14:10) 6.7 (03:20) 14.2 16.11 (14:10) 10 (23:40) 0 0 0 0 0
18-04-2019 21.1 (13:10) 3.3 (00:00) 12.2 18.06 (16:00) 10.83 (14:40) 0 0 0 0 0
17-04-2019 14.4 (15:50) 6.4 (00:00) 10.4 15.56 (22:00) 8.33 (22:20) 0 0 0 0 0
16-04-2019 18.3 (16:20) 8.6 (00:00) 13.4 12.5 (14:40) 6.11 (16:00) 0 0 0 0 0
15-04-2019 18.5 (16:50) 4 (00:00) 11.3 8.61 (16:20) 4.72 (15:00) 0 0 0 0 0
14-04-2019 19.7 (15:40) 4.9 (00:00) 12.3 9.72 (16:20) 6.11 (17:00) 0 0 0 0 0
13-04-2019 18.8 (17:50) 6 (00:00) 12.4 10.83 (09:10) 8.33 (09:20) 0 0 0 0 0
12-04-2019 16.7 (16:20) 2.4 (00:00) 9.6 15.56 (08:40) 10.56 (08:40) 0 0 0 0 0
11-04-2019 15.1 (14:20) 4.4 (00:00) 9.8 11.11 (13:20) 6.94 (20:50) 0 0 0 0 0
10-04-2019 15.7 (14:20) -1.1 (-00:0) 7.3 11.11 (16:50) 7.22 (18:10) 0 0 0 0 0
09-04-2019 14.6 (13:00) 0.3 (00:00) 7.5 11.94 (14:00) 6.39 (13:50) 0 0 0 0 0
08-04-2019 16.6 (14:50) 0.5 (00:00) 8.6 17.78 (13:30) 9.44 (14:20) 0 0 0 0 0
07-04-2019 15.4 (18:20) -0.1 (00:00) 7.6 13.89 (18:40) 6.94 (16:50) 0 0 0 0 0
06-04-2019 15.4 (16:20) -0.4 (00:00) 7.5 15.28 (12:00) 9.44 (11:50) 0 0 0 0 0
05-04-2019 15.3 (16:10) -1.5 (-00:0) 6.9 15.56 (14:40) 9.44 (14:50) 0 0 0 0 0
04-04-2019 10.3 (15:30) -3 (-00:0) 3.7 14.44 (11:30) 10.28 (09:30) 0 0 0 0 0
03-04-2019 8.5 (16:30) -2.5 (07:30) 3 14.72 (18:20) 8.61 (18:10) 0 0 0 0 0
02-04-2019 9.3 (17:10) 0.6 (00:00) 5 9.44 (07:30) 5.56 (01:40) 6.2 0.8 5.2 0.2 0
01-04-2019 9.4 (13:40) -2.5 (-00:0) 3.4 8.61 (12:20) 4.72 (13:10) 1.2 0 0 0 1.2
31-03-2019 10 (12:40) -2.9 (-00:0) 3.5 14.17 (14:20) 8.33 (15:30) 0 0 0 0 0
30-03-2019 8.2 (11:50) -4 (-00:0) 2.1 16.67 (15:20) 8.89 (16:00) 0 0 0 0 0
29-03-2019 10 (14:50) -2.1 (-00:0) 4 8.33 (15:00) 5 (16:10) 0 0 0 0 0
28-03-2019 8.1 (11:20) -1.3 (-00:0) 3.4 6.39 (10:50) 4.17 (11:40) 1.6 0 0 1.6 0
27-03-2019 10.7 (12:50) -1 (-00:0) 4.8 9.17 (03:10) 5 (03:10) 4.2 0 0 4.2 0
26-03-2019 10.5 (15:30) -1.4 (-00:0) 4.6 11.67 (11:00) 7.78 (19:20) 0.2 0 0.2 0 0
25-03-2019 5 (13:40) -0.7 (-00:0) 2.2 9.72 (10:20) 5.28 (13:50) 12.6 0 10 2.6 0

Gráficas

Temp. máximas Temp. mínimas Temp. medias Precipitaciones Rachas de viento máximas Velocidades máximas media en intervalos de 10 minutos

Datos horarios

Fecha y hora oficial Temperatura (ºC) Velocidad del viento (km/h) Dirección del viento Racha (km/h) Dirección de racha Precipitación (mm) Presión (hPa) Tendencia (hPa) Humedad (%)
2019-04-23 23:00:00 9.3 25 Este 41 Este 0 -- -- 25
2019-04-23 22:00:00 10.2 18 Sudeste 43 Sudeste 0 -- -- 26
2019-04-23 21:00:00 9 25 Este 45 Este 0 -- -- 35
2019-04-23 20:00:00 11 17 Este 43 Sudeste 0 -- -- 27
2019-04-23 19:00:00 13.1 19 Norte 46 Noroeste 0 -- -- 25
2019-04-23 18:00:00 13.9 19 Noroeste 57 Noroeste 0 -- -- 31
2019-04-23 17:00:00 15 24 Oeste 50 Noroeste 0 -- -- 23
2019-04-23 16:00:00 16.2 18 Oeste 49 Norte 0 -- -- 11
2019-04-23 15:00:00 15.5 19 Oeste 46 Noroeste 0 -- -- 3
2019-04-23 14:00:00 14.9 20 Noroeste 50 Noroeste 0 -- -- 2
2019-04-23 13:00:00 15.3 15 Noroeste 39 Noroeste 0 -- -- --
2019-04-23 12:00:00 15.4 18 Noroeste 56 Norte 0 -- -- 2
2019-04-23 11:00:00 14.4 15 Noroeste 37 Noroeste 0 -- -- 15
2019-04-23 10:00:00 11.4 18 Noroeste 46 Noroeste 0 -- -- 23
2019-04-23 09:00:00 10.9 30 Noroeste 48 Noroeste 0 -- -- 22
2019-04-23 08:00:00 8.6 18 Norte 37 Norte 0 -- -- 35
2019-04-23 07:00:00 8 15 Norte 46 Norte 0 -- -- 30
2019-04-23 06:00:00 8.2 24 Noroeste 49 Norte 0 -- -- 34
2019-04-23 05:00:00 8.1 13 Noroeste 38 Noroeste 0 -- -- 29
2019-04-23 04:00:00 8 9 Oeste 28 Noroeste 0 -- -- 28
2019-04-23 03:00:00 8.5 17 Norte 40 Norte 0 -- -- 26
2019-04-23 02:00:00 9 17 Norte 35 Norte 0 -- -- 23
2019-04-23 01:00:00 7.6 9 Este 21 Este 0 -- -- 29
2019-04-23 00:00:00 8.6 9 Sudeste 23 Sudeste 0 -- -- 26
2019-04-22 23:00:00 9.3 12 Sudeste 26 Sudoeste 0 -- -- 26
2019-04-22 22:00:00 10 14 Nordeste 38 Norte 0 -- -- 24
2019-04-22 21:00:00 10.1 10 Sudeste 46 Sudoeste 0 -- -- 32
2019-04-22 20:00:00 11.8 23 Oeste 49 Oeste 0 -- -- 29
2019-04-22 19:00:00 15 12 Sur 29 Sur 0 -- -- 27
2019-04-22 18:00:00 14.8 18 Oeste 47 Sur 0 -- -- 30
2019-04-22 17:00:00 16.6 13 Norte 43 Norte 0 -- -- 17
2019-04-22 16:00:00 17 23 Sur 38 Sur 0 -- -- 27
2019-04-22 15:00:00 17.3 22 Sur 53 Norte 0 -- -- 24
2019-04-22 14:00:00 16.3 25 Norte 61 Noroeste 0 -- -- 19
2019-04-22 13:00:00 15.5 29 Norte 61 Nordeste 0 -- -- 20
2019-04-22 12:00:00 16 24 Nordeste 62 Nordeste 0 -- -- 22
2019-04-22 11:00:00 13.7 13 Norte 54 Nordeste 0 -- -- 23
2019-04-22 10:00:00 13.1 21 Norte 41 Nordeste 0 -- -- 19
2019-04-22 09:00:00 10.2 3 Noroeste 14 Norte 0 -- -- 22
2019-04-22 08:00:00 3.5 7 Nordeste 17 Este 0 -- -- 31
2019-04-22 07:00:00 3.9 8 Norte 49 Este 0 -- -- 31
2019-04-22 06:00:00 8.7 33 Este 51 Este 0 -- -- 25
2019-04-22 05:00:00 7.8 15 Nordeste 35 Este 0 -- -- 25
2019-04-22 04:00:00 4.2 6 Norte 27 Nordeste 0 -- -- 34
2019-04-22 03:00:00 8.6 17 Nordeste 33 Este 0 -- -- 23
2019-04-22 02:00:00 8.4 22 Este 37 Este 0 -- -- 28
2019-04-22 01:00:00 8.8 22 Este 41 Este 0 -- -- 24
2019-04-22 00:00:00 9.8 24 Nordeste 46 Nordeste 0 -- -- 24
2019-04-21 23:00:00 9.9 27 Este 46 Este 0 -- -- 26
2019-04-21 22:00:00 10.7 24 Nordeste 42 Nordeste 0 -- -- 21
2019-04-21 21:00:00 10.2 19 Nordeste 38 Nordeste 0 -- -- 26
2019-04-21 20:00:00 11.8 24 Nordeste 42 Nordeste 0 -- -- 24
2019-04-21 19:00:00 13.3 29 Nordeste 45 Nordeste 0 -- -- 23
2019-04-21 18:00:00 14.6 28 Nordeste 47 Nordeste 0 -- -- 22
2019-04-21 17:00:00 15.8 29 Nordeste 46 Nordeste 0 -- -- 20
2019-04-21 16:00:00 15.4 32 Nordeste 49 Nordeste 0 -- -- 19
2019-04-21 15:00:00 16.6 30 Nordeste 54 Nordeste 0 -- -- 18
2019-04-21 14:00:00 16.5 31 Nordeste 44 Nordeste 0 -- -- 19
2019-04-21 13:00:00 15.7 26 Nordeste 41 Nordeste 0 -- -- 25
2019-04-21 12:00:00 15.5 26 Nordeste 44 Nordeste 0 -- -- 26
2019-04-21 11:00:00 14.2 27 Nordeste 44 Nordeste 0 -- -- 28
2019-04-21 10:00:00 13.7 21 Nordeste 31 Nordeste 0 -- -- 26
2019-04-21 09:00:00 11.2 15 Este 33 Nordeste 0 -- -- 29
2019-04-21 08:00:00 10.1 26 Este 47 Este 0 -- -- 26
2019-04-21 07:00:00 10.6 33 Nordeste 53 Este 0 -- -- 17
2019-04-21 06:00:00 10.2 34 Este 49 Nordeste 0 -- -- 8
2019-04-21 05:00:00 9.3 21 Este 35 Nordeste 0 -- -- 7
2019-04-21 04:00:00 6 8 Nordeste 27 Sudeste 0 -- -- 25
2019-04-21 03:00:00 9 5 Sudeste 24 Sudeste 0 -- -- 22
2019-04-21 02:00:00 8.8 12 Nordeste 27 Este 0 -- -- 22
2019-04-21 01:00:00 7.8 3 Sudeste 21 Sudeste 0 -- -- 20
2019-04-21 00:00:00 10 8 Este 31 Este 0 -- -- 18
2019-04-20 23:00:00 10.8 15 Este 33 Este 0 -- -- 16
2019-04-20 22:00:00 10.4 20 Este 33 Este 0 -- -- 15
2019-04-20 21:00:00 12 22 Este 32 Este 0 -- -- 12
2019-04-20 20:00:00 13.7 17 Sudeste 41 Sudeste 0 -- -- 17
2019-04-20 19:00:00 17 24 Este 39 Este 0 -- -- 9
2019-04-20 18:00:00 18.9 15 Sur 42 Sudeste 0 -- -- 18
2019-04-20 17:00:00 19.1 29 Sur 46 Sur 0 -- -- 8
2019-04-20 16:00:00 20.5 24 Este 37 Este 0 -- -- 12
2019-04-20 15:00:00 20.4 18 Sudoeste 37 Sudoeste 0 -- -- 17
2019-04-20 14:00:00 21.5 19 Sur 35 Sudoeste 0 -- -- 17
2019-04-20 13:00:00 19.1 14 Sur 34 Sudeste 0 -- -- 15
2019-04-20 12:00:00 18.3 14 Sudoeste 26 Sudoeste 0 -- -- 13
2019-04-20 11:00:00 15.7 9 Oeste 16 Oeste 0 -- -- 13
2019-04-20 10:00:00 14.4 7 Sudoeste 14 Sur 0 -- -- 12
2019-04-20 09:00:00 13.3 5 Sur 20 Sudeste 0 -- -- 11
2019-04-20 08:00:00 8.4 4 Sudeste 35 Este 0 -- -- 13
2019-04-20 07:00:00 11.5 26 Este 41 Este 0 -- -- 8
2019-04-20 06:00:00 6.1 5 Nordeste 14 Norte 0 -- -- 19
2019-04-20 05:00:00 6.6 3 Nordeste 17 Sur 0 -- -- 19
2019-04-20 04:00:00 10.6 25 Este 48 Este 0 -- -- 14
2019-04-20 03:00:00 11.3 27 Este 42 Este 0 -- -- 9
2019-04-20 02:00:00 11.3 22 Este 38 Este 0 -- -- 13
2019-04-20 01:00:00 10.7 18 Este 50 Este 0 -- -- 16
2019-04-20 00:00:00 10 32 Este 49 Este 0 -- -- 20
2019-04-19 23:00:00 9.4 35 Este 49 Este 0 -- -- 16
2019-04-19 22:00:00 10.5 25 Este 41 Este 0 -- -- 22
2019-04-19 21:00:00 11.3 25 Este 43 Este 0 -- -- 22
2019-04-19 20:00:00 14.6 29 Este 44 Este 0 -- -- 11
2019-04-19 19:00:00 16.6 26 Este 48 Nordeste 0 -- -- 10
2019-04-19 18:00:00 19.2 25 Nordeste 47 Nordeste 0 -- -- 5
2019-04-19 17:00:00 19.8 14 Norte 42 Sudoeste 0 -- -- 6
2019-04-19 16:00:00 19.5 9 Oeste 33 Oeste 0 -- -- 18
2019-04-19 15:00:00 19.6 13 Oeste 58 Nordeste 0 -- -- 19
2019-04-19 14:00:00 21.1 14 Sudeste 41 Este 0 -- -- 14
2019-04-19 13:00:00 19.5 10 Noroeste 48 Este 0 -- -- 14
2019-04-19 12:00:00 19.5 27 Este 49 Este 0 -- -- 11
2019-04-19 11:00:00 15.5 27 Este 39 Este 0 -- -- 19
2019-04-19 10:00:00 15.3 16 Este 35 Este 0 -- -- 18
2019-04-19 09:00:00 13.5 14 Este 36 Este 0 -- -- 14
2019-04-19 08:00:00 10.1 21 Este 38 Este 0 -- -- 20
2019-04-19 07:00:00 9.9 17 Este 33 Este 0 -- -- 17
2019-04-19 06:00:00 10 21 Este 32 Este 0 -- -- 18
2019-04-19 05:00:00 10.1 23 Este 37 Este 0 -- -- 17
2019-04-19 04:00:00 10 16 Este 27 Este 0 -- -- 20
2019-04-19 03:00:00 7.5 5 Norte 14 Norte 0 -- -- 26
2019-04-19 02:00:00 11.1 9 Oeste 36 Norte 0 -- -- 22
2019-04-19 01:00:00 9.9 6 Norte 22 Este 0 -- -- 22
2019-04-19 00:00:00 11.7 14 Norte 46 Nordeste 0 -- -- 19
2019-04-18 23:00:00 11.6 27 Este 45 Este 0 -- -- 17
2019-04-18 22:00:00 12.6 33 Nordeste 49 Nordeste 0 -- -- 15
2019-04-18 21:00:00 13 35 Nordeste 49 Nordeste 0 -- -- 17
2019-04-18 20:00:00 14.6 31 Nordeste 46 Nordeste 0 -- -- 22
2019-04-18 19:00:00 18 27 Nordeste 43 Nordeste 0 -- -- 14
2019-04-18 18:00:00 18.9 32 Nordeste 46 Nordeste 0 -- -- 16
2019-04-18 17:00:00 19.8 31 Nordeste 53 Nordeste 0 -- -- 18
2019-04-18 16:00:00 20.1 24 Nordeste 65 Norte 0 -- -- 23
2019-04-18 15:00:00 19.2 39 Nordeste 60 Nordeste 0 -- -- 22
2019-04-18 14:00:00 20.1 30 Nordeste 52 Nordeste 0 -- -- 21
2019-04-18 13:00:00 20.5 24 Nordeste 60 Nordeste 0 -- -- 19
2019-04-18 12:00:00 18.1 31 Este 48 Este 0 -- -- 25
2019-04-18 11:00:00 18.4 19 Nordeste 36 Nordeste 0 -- -- 25
2019-04-18 10:00:00 15.8 9 Sudeste 28 Este 0 -- -- 26
2019-04-18 09:00:00 13.1 20 Este 32 Este 0 -- -- 27
2019-04-18 08:00:00 10.3 13 Sudeste 24 Este 0 -- -- 31
2019-04-18 07:00:00 7 5 Este 17 Norte 0 -- -- 30
2019-04-18 06:00:00 6.8 4 Este 22 Nordeste 0 -- -- 30
2019-04-18 05:00:00 5 5 Nordeste 14 Este 0 -- -- 34
2019-04-18 04:00:00 6.2 2 Este 26 Este 0 -- -- 38
2019-04-18 03:00:00 4.7 5 Nordeste 21 Este 0 -- -- 54
2019-04-18 02:00:00 3.4 8 Nordeste 23 Nordeste 0 -- -- 67
2019-04-18 01:00:00 3.3 19 Nordeste 35 Nordeste 0 -- -- 66
2019-04-18 00:00:00 6.8 5 Norte 14 Oeste 0 -- -- 23
2019-04-17 23:00:00 8.2 7 Norte 48 Sudoeste 0 -- -- 21
2019-04-17 22:00:00 12.4 30 Sudoeste 56 Sudoeste 0 -- -- 15
2019-04-17 21:00:00 12.3 15 Sudoeste 45 Sudoeste 0 -- -- 18
2019-04-17 20:00:00 12.5 18 Sudoeste 48 Sudoeste 0 -- -- 11
2019-04-17 19:00:00 12.6 28 Sudoeste 49 Sudoeste 0 -- -- 21
2019-04-17 18:00:00 13.5 21 Sur 45 Sudoeste 0 -- -- 24
2019-04-17 17:00:00 14.1 15 Sudoeste 39 Sudoeste 0 -- -- 23
2019-04-17 16:00:00 13.8 22 Oeste 48 Sur 0 -- -- 23
2019-04-17 15:00:00 13.3 16 Sudoeste 39 Oeste 0 -- -- 36
2019-04-17 14:00:00 12.6 17 Sudoeste 45 Sudoeste 0 -- -- 49
2019-04-17 13:00:00 13 15 Sudoeste 48 Sudoeste 0 -- -- 48
2019-04-17 12:00:00 12 21 Oeste 41 Oeste 0 -- -- 48
2019-04-17 11:00:00 12.1 24 Oeste 40 Sudoeste 0 -- -- 41
2019-04-17 10:00:00 11.4 17 Sudoeste 40 Sur 0 -- -- 43
2019-04-17 09:00:00 10.2 16 Sur 36 Sudoeste 0 -- -- 33
2019-04-17 08:00:00 8.6 11 Sur 32 Sur 0 -- -- 32
2019-04-17 07:00:00 8.4 8 Sudoeste 32 Sur 0 -- -- 38
2019-04-17 06:00:00 8.6 10 Sudoeste 33 Sudoeste 0 -- -- 36
2019-04-17 05:00:00 8.2 10 Sur 30 Sur 0 -- -- 36
2019-04-17 04:00:00 8.8 14 Sudoeste 25 Sudoeste 0 -- -- 28
2019-04-17 03:00:00 8.2 11 Sur 28 Sur 0 -- -- 18
2019-04-17 02:00:00 7.9 12 Sur 21 Sudoeste 0 -- -- 16
2019-04-17 01:00:00 8.7 12 Sur 27 Sur 0 -- -- 12
2019-04-17 00:00:00 10.2 7 Sudoeste 21 Oeste 0 -- -- 5
2019-04-16 23:00:00 9.5 3 Sur 14 Sur 0 -- -- 11
2019-04-16 22:00:00 10.2 4 Oeste 24 Oeste 0 -- -- 12
2019-04-16 21:00:00 11.5 9 Oeste 32 Oeste 0 -- -- 10
2019-04-16 20:00:00 12.7 10 Oeste 27 Oeste 0 -- -- 11
2019-04-16 19:00:00 14.9 15 Oeste 38 Oeste 0 -- -- 10
2019-04-16 18:00:00 15.6 18 Oeste 42 Oeste 0 -- -- 10
2019-04-16 17:00:00 16.2 16 Oeste 43 Sudoeste 0 -- -- 10
2019-04-16 16:00:00 17.9 22 Sudoeste 41 Sudoeste 0 -- -- 9
2019-04-16 15:00:00 18 18 Sudoeste 45 Oeste 0 -- -- 9
2019-04-16 14:00:00 16.9 14 Oeste 36 Oeste 0 -- -- 10
2019-04-16 13:00:00 16.5 11 Oeste 39 Sudoeste 0 -- -- 10
2019-04-16 12:00:00 15.1 16 Oeste 41 Sudoeste 0 -- -- 11
2019-04-16 11:00:00 14 15 Oeste 31 Oeste 0 -- -- 14
2019-04-16 10:00:00 12.9 11 Oeste 26 Oeste 0 -- -- 16
2019-04-16 09:00:00 11.4 8 Sudoeste 18 Sudoeste 0 -- -- 19
2019-04-16 08:00:00 8.7 4 Sudoeste 12 Oeste 0 -- -- 22
2019-04-16 07:00:00 9.3 3 Sudoeste 8 Sudoeste 0 -- -- 20
2019-04-16 06:00:00 9.7 3 Sudoeste 9 Oeste 0 -- -- 18
2019-04-16 05:00:00 10.2 3 Sudoeste 11 Sudoeste 0 -- -- 16
2019-04-16 04:00:00 9.9 5 Sudoeste 9 Sudoeste 0 -- -- 17
2019-04-16 03:00:00 10.2 5 Sudoeste 8 Sudoeste 0 -- -- 15
2019-04-16 02:00:00 10.7 4 Sudoeste 7 Sudoeste 0 -- -- 14
2019-04-16 01:00:00 10.5 6 Sudoeste 10 Sudoeste 0 -- -- 13
2019-04-16 00:00:00 11.1 6 Sudoeste 10 Sudoeste 0 -- -- 12
2019-04-15 23:00:00 11.7 7 Sudoeste 15 Sudoeste 0 -- -- 13
2019-04-15 22:00:00 12.2 9 Sudoeste 15 Sudoeste 0 -- -- 14
2019-04-15 21:00:00 13.2 8 Sudoeste 17 Oeste 0 -- -- 17
2019-04-15 20:00:00 14.4 11 Oeste 22 Oeste 0 -- -- 14
2019-04-15 19:00:00 17.7 14 Sudoeste 29 Oeste 0 -- -- 13
2019-04-15 18:00:00 17.6 13 Oeste 27 Oeste 0 -- -- 13
2019-04-15 17:00:00 18.1 14 Oeste 31 Oeste 0 -- -- 17
2019-04-15 16:00:00 17.8 14 Oeste 26 Sudoeste 0 -- -- 26
2019-04-15 15:00:00 17.7 17 Oeste 27 Oeste 0 -- -- 28
2019-04-15 14:00:00 17.4 12 Oeste 24 Oeste 0 -- -- 19
2019-04-15 13:00:00 16.7 13 Oeste 24 Oeste 0 -- -- 20
2019-04-15 12:00:00 16.2 11 Oeste 22 Oeste 0 -- -- 19
2019-04-15 11:00:00 15.6 8 Sudoeste 19 Sudoeste 0 -- -- 23
2019-04-15 10:00:00 14.4 6 Sudoeste 11 Sudeste 0 -- -- 23
2019-04-15 09:00:00 10.4 2 Nordeste 9 Norte 0 -- -- 20
2019-04-15 08:00:00 6 2 Este 8 Norte 0 -- -- 21
2019-04-15 07:00:00 5.1 2 Norte 13 Nordeste 0 -- -- 18
2019-04-15 06:00:00 5.7 7 Nordeste 18 Este 0 -- -- 16
2019-04-15 05:00:00 5.6 5 Este 8 Nordeste 0 -- -- 13
2019-04-15 04:00:00 5.4 4 Norte 9 Sur 0 -- -- 12
2019-04-15 03:00:00 10.7 9 Sur 20 Sudeste 0 -- -- 6
2019-04-15 02:00:00 10.6 9 Sur 19 Sudoeste 0 -- -- 5
2019-04-15 01:00:00 10.2 7 Sur 14 Sudoeste 0 -- -- 5
2019-04-15 00:00:00 11.2 10 Sudoeste 24 Sur 0 -- -- 5
2019-04-14 23:00:00 12.5 14 Sudoeste 26 Sudoeste 0 -- -- 4
2019-04-14 22:00:00 12.6 8 Sudoeste 17 Oeste 0 -- -- 4
2019-04-14 21:00:00 12.4 4 Sudoeste 19 Sudoeste 0 -- -- 10
2019-04-14 20:00:00 14 10 Sudoeste 22 Sudoeste 0 -- -- 11
2019-04-14 19:00:00 15.6 14 Oeste 26 Sudoeste 0 -- -- 10
2019-04-14 18:00:00 18 11 Sudoeste 29 Sudoeste 0 -- -- 7
2019-04-14 17:00:00 18 22 Sudoeste 35 Sudoeste 0 -- -- 9
2019-04-14 16:00:00 18.4 17 Sudoeste 31 Sur 0 -- -- 10
2019-04-14 15:00:00 18.2 18 Sudeste 31 Sur 0 -- -- 17
2019-04-14 14:00:00 18.8 16 Sur 28 Sur 0 -- -- 18
2019-04-14 13:00:00 19.3 15 Sur 24 Sur 0 -- -- 18
2019-04-14 12:00:00 17 13 Sur 23 Sudeste 0 -- -- 15
2019-04-14 11:00:00 16.5 12 Sudoeste 25 Sur 0 -- -- 12
2019-04-14 10:00:00 15.9 8 Sur 15 Sur 0 -- -- 14
2019-04-14 09:00:00 12.7 2 Nordeste 8 Norte 0 -- -- 20
2019-04-14 08:00:00 5.2 7 Nordeste 9 Norte 0 -- -- 27
2019-04-14 07:00:00 5.1 4 Norte 9 Norte 0 -- -- 25
2019-04-14 06:00:00 5.5 3 Nordeste 6 Nordeste 0 -- -- 22
2019-04-14 05:00:00 6 5 Nordeste 10 Nordeste 0 -- -- 20
2019-04-14 04:00:00 6.9 5 Nordeste 13 Este 0 -- -- 21
2019-04-14 03:00:00 6.7 10 Norte 17 Nordeste 0 -- -- 22
2019-04-14 02:00:00 7.4 8 Este 15 Este 0 -- -- 23
2019-04-14 01:00:00 7.2 8 Nordeste 13 Este 0 -- -- 26
2019-04-14 00:00:00 6.8 7 Nordeste 13 Este 0 -- -- 25
2019-04-13 23:00:00 9.5 10 Este 13 Este 0 -- -- 17
2019-04-13 22:00:00 9.9 2 Este 6 Norte 0 -- -- 18
2019-04-13 21:00:00 12.2 4 Oeste 18 Noroeste 0 -- -- 14
2019-04-13 20:00:00 15.5 5 Norte 18 Sudeste 0 -- -- 11
2019-04-13 19:00:00 17.3 10 Este 26 Sudeste 0 -- -- 11
2019-04-13 18:00:00 18.4 12 Sudeste 23 Este 0 -- -- 12
2019-04-13 17:00:00 17.9 15 Este 26 Este 0 -- -- 11
2019-04-13 16:00:00 17.4 13 Este 29 Sudeste 0 -- -- 11
2019-04-13 15:00:00 16.8 19 Este 33 Sudeste 0 -- -- 14
2019-04-13 14:00:00 17.4 19 Este 31 Sudeste 0 -- -- 17
2019-04-13 13:00:00 17 14 Sudeste 28 Nordeste 0 -- -- 16
2019-04-13 12:00:00 16.6 13 Este 23 Este 0 -- -- 15
2019-04-13 11:00:00 16 15 Nordeste 30 Este 0 -- -- 15
2019-04-13 10:00:00 12.3 22 Este 39 Este 0 -- -- 17
2019-04-13 09:00:00 9.8 28 Este 37 Este 0 -- -- 20
2019-04-13 08:00:00 7.8 19 Este 33 Este 0 -- -- 21
2019-04-13 07:00:00 6.8 10 Nordeste 37 Este 0 -- -- 23
2019-04-13 06:00:00 7.6 17 Este 36 Este 0 -- -- 24
2019-04-13 05:00:00 7.1 16 Este 30 Nordeste 0 -- -- 26
2019-04-13 04:00:00 6.4 9 Este 26 Este 0 -- -- 29
2019-04-13 03:00:00 7.4 17 Este 29 Este 0 -- -- 27
2019-04-13 02:00:00 7.5 20 Este 35 Este 0 -- -- 26
2019-04-13 01:00:00 7.4 18 Este 30 Este 0 -- -- 27
2019-04-13 00:00:00 7.6 20 Este 33 Sudeste 0 -- -- 28
2019-04-12 23:00:00 7.8 22 Este 36 Este 0 -- -- 27
2019-04-12 22:00:00 7.9 24 Este 36 Este 0 -- -- 28
2019-04-12 21:00:00 7.8 26 Este 42 Este 0 -- -- 35
2019-04-12 20:00:00 8.9 27 Este 40 Este 0 -- -- 35
2019-04-12 19:00:00 12.3 23 Sudeste 37 Sudeste 0 -- -- 24
2019-04-12 18:00:00 14.2 21 Este 50 Este 0 -- -- 24
2019-04-12 17:00:00 15.4 25 Sudeste 44 Sudeste 0 -- -- 27
2019-04-12 16:00:00 15.4 17 Sur 28 Sudeste 0 -- -- 39
2019-04-12 15:00:00 15.4 13 Oeste 34 Sudeste 0 -- -- 27
2019-04-12 14:00:00 15 24 Sudeste 47 Sudeste 0 -- -- 21
2019-04-12 13:00:00 15.4 22 Sudeste 51 Sudeste 0 -- -- 20
2019-04-12 12:00:00 15 26 Este 49 Este 0 -- -- 21
2019-04-12 11:00:00 14.4 10 Norte 32 Nordeste 0 -- -- 21
2019-04-12 10:00:00 10.7 8 Oeste 19 Nordeste 0 -- -- 24
2019-04-12 09:00:00 9.5 23 Nordeste 56 Este 0 -- -- 26
2019-04-12 08:00:00 5.2 6 Sudeste 17 Este 0 -- -- 26
2019-04-12 07:00:00 5.5 7 Este 43 Nordeste 0 -- -- 24
2019-04-12 06:00:00 6.6 16 Este 30 Este 0 -- -- 18
2019-04-12 05:00:00 3 4 Nordeste 20 Este 0 -- -- 22
2019-04-12 04:00:00 5.3 9 Este 36 Este 0 -- -- 19
2019-04-12 03:00:00 5.2 7 Este 32 Nordeste 0 -- -- 24
2019-04-12 02:00:00 3.5 9 Nordeste 34 Este 0 -- -- 34
2019-04-12 01:00:00 4 11 Nordeste 31 Este 0 -- -- 26
2019-04-12 00:00:00 5.5 21 Este 35 Este 0 -- -- 22
2019-04-11 23:00:00 5.5 15 Este 26 Este 0 -- -- 28
2019-04-11 22:00:00 5.9 17 Este 31 Este 0 -- -- 32
2019-04-11 21:00:00 6.7 23 Este 36 Este 0 -- -- 33
2019-04-11 20:00:00 8.9 22 Este 36 Este 0 -- -- 30
2019-04-11 19:00:00 11.9 20 Este 36 Este 0 -- -- 25
2019-04-11 18:00:00 13 21 Sudeste 33 Este 0 -- -- 21
2019-04-11 17:00:00 13.9 22 Este 35 Este 0 -- -- 24
2019-04-11 16:00:00 14.4 17 Este 37 Sudeste 0 -- -- 31
2019-04-11 15:00:00 14.3 20 Este 33 Sudeste 0 -- -- 22
2019-04-11 14:00:00 13.9 21 Sudeste 40 Sudeste 0 -- -- 20
2019-04-11 13:00:00 13.7 18 Sudeste 36 Este 0 -- -- 19
2019-04-11 12:00:00 14.2 19 Este 36 Este 0 -- -- 20
2019-04-11 11:00:00 11.9 18 Sudeste 30 Sudeste 0 -- -- 23
2019-04-11 10:00:00 10.5 11 Este 23 Este 0 -- -- 21
2019-04-11 09:00:00 7.5 15 Este 25 Este 0 -- -- 28
2019-04-11 08:00:00 5.2 17 Este 35 Este 0 -- -- 32
2019-04-11 07:00:00 4.9 22 Este 34 Este 0 -- -- 19
2019-04-11 06:00:00 5.5 23 Este 37 Este 0 -- -- 14
2019-04-11 05:00:00 4.9 11 Este 26 Este 0 -- -- 13
2019-04-11 04:00:00 5.4 18 Este 27 Este 0 -- -- 9
2019-04-11 03:00:00 5.2 10 Este 25 Este 0 -- -- 19
2019-04-11 02:00:00 5.9 15 Este 35 Este 0 -- -- 22
2019-04-11 01:00:00 6.1 19 Este 40 Este 0 -- -- 29
2019-04-11 00:00:00 6 17 Este 33 Este 0 -- -- 19
2019-04-10 23:00:00 5.4 10 Nordeste 19 Este 0 -- -- 29
2019-04-10 22:00:00 6.1 12 Este 24 Este 0 -- -- 20
2019-04-10 21:00:00 7.1 17 Este 31 Este 0 -- -- 19
2019-04-10 20:00:00 8.8 19 Este 39 Este 0 -- -- 17
2019-04-10 19:00:00 11.1 24 Este 37 Este 0 -- -- 13
2019-04-10 18:00:00 12.2 24 Este 39 Este 0 -- -- 12
2019-04-10 17:00:00 13.2 24 Este 40 Este 0 -- -- 14
2019-04-10 16:00:00 13.4 10 Sur 28 Este 0 -- -- 22
2019-04-10 15:00:00 14.3 16 Sudoeste 35 Sudeste 0 -- -- 36
2019-04-10 14:00:00 14.2 12 Sur 32 Sur 0 -- -- 26
2019-04-10 13:00:00 13.8 15 Sur 36 Sur 0 -- -- 28
2019-04-10 12:00:00 13.4 22 Sur 39 Sudeste 0 -- -- 12
2019-04-10 11:00:00 12.1 8 Sur 21 Este 0 -- -- 12
2019-04-10 10:00:00 10 15 Este 30 Este 0 -- -- 11
2019-04-10 09:00:00 4.9 4 Norte 13 Nordeste 0 -- -- 28
2019-04-10 08:00:00 0.5 5 Este 13 Nordeste 0 -- -- 29
2019-04-10 07:00:00 -0.5 9 Norte 12 Norte 0 -- -- 33
2019-04-10 06:00:00 0.4 8 Este 14 Este 0 -- -- 37
2019-04-10 05:00:00 -0.2 8 Norte 18 Este 0 -- -- 52
2019-04-10 04:00:00 1.7 12 Nordeste 17 Este 0 -- -- 42
2019-04-10 03:00:00 0.4 4 Nordeste 22 Este 0 -- -- 73
2019-04-10 02:00:00 0.9 4 Nordeste 22 Este 0 -- -- 74
2019-04-10 01:00:00 2 12 Este 20 Este 0 -- -- 75
2019-04-10 00:00:00 2.4 16 Este 30 Este 0 -- -- 74
2019-04-09 23:00:00 3.9 16 Este 24 Este 0 -- -- 53
2019-04-09 22:00:00 4.8 3 Norte 14 Este 0 -- -- 34
2019-04-09 21:00:00 8.3 3 Noroeste 19 Sudoeste 0 -- -- 18
2019-04-09 20:00:00 10.7 9 Sudoeste 26 Sudoeste 0 -- -- 14
2019-04-09 19:00:00 12.9 11 Oeste 29 Sur 0 -- -- 12
2019-04-09 18:00:00 13.6 15 Sudoeste 42 Sudoeste 0 -- -- 17
2019-04-09 17:00:00 13.8 15 Sudoeste 33 Sudoeste 0 -- -- 16
2019-04-09 16:00:00 13.5 12 Oeste 31 Sudoeste 0 -- -- 17
2019-04-09 15:00:00 13 15 Oeste 39 Sudoeste 0 -- -- 22
2019-04-09 14:00:00 13.7 19 Sur 43 Sur 0 -- -- 18
2019-04-09 13:00:00 14.6 13 Sudoeste 38 Sur 0 -- -- 17
2019-04-09 12:00:00 13.2 14 Sudoeste 31 Sudoeste 0 -- -- 15
2019-04-09 11:00:00 12.1 10 Oeste 20 Sudoeste 0 -- -- 12
2019-04-09 10:00:00 10.6 8 Sur 12 Sur 0 -- -- 15
2019-04-09 09:00:00 7.8 5 Sur 7 Norte 0 -- -- 22
2019-04-09 08:00:00 1 3 Noroeste 5 Norte 0 -- -- 34
2019-04-09 07:00:00 0.7 4 Norte 9 Norte 0 -- -- 35
2019-04-09 06:00:00 1.7 3 Norte 5 Norte 0 -- -- 32
2019-04-09 05:00:00 1.8 0 Calma 7 Norte 0 -- -- 31
2019-04-09 04:00:00 1.7 0 Calma 8 Norte 0 -- -- 31
2019-04-09 03:00:00 1.3 6 Norte 8 Norte 0 -- -- 33
2019-04-09 02:00:00 1.6 5 Norte 8 Norte 0 -- -- 32
2019-04-09 01:00:00 3.2 4 Norte 9 Norte 0 -- -- 27
2019-04-09 00:00:00 2.9 2 Norte 10 Norte 0 -- -- 28
2019-04-08 23:00:00 4.4 3 Norte 9 Norte 0 -- -- 22
2019-04-08 22:00:00 5.8 2 Nordeste 12 Noroeste 0 -- -- 17
2019-04-08 21:00:00 7.9 8 Este 13 Este 0 -- -- 17
2019-04-08 20:00:00 11.2 5 Nordeste 19 Oeste 0 -- -- 15
2019-04-08 19:00:00 14.3 11 Sudoeste 32 Sur 0 -- -- 18
2019-04-08 18:00:00 14.8 12 Sur 35 Sur 0 -- -- 16
2019-04-08 17:00:00 15.7 15 Sur 38 Oeste 0 -- -- 17
2019-04-08 16:00:00 15.4 20 Sudoeste 46 Sur 0 -- -- 21
2019-04-08 15:00:00 16.5 32 Sur 58 Sudoeste 0 -- -- 20
2019-04-08 14:00:00 15 32 Sur 64 Sudoeste 0 -- -- 26
2019-04-08 13:00:00 15.1 21 Sur 51 Sur 0 -- -- 16
2019-04-08 12:00:00 -- 17 Sur 43 Sudoeste 0 -- -- --
2019-04-08 11:00:00 13.1 11 Sudoeste 16 Sudoeste 0 -- -- 13
2019-04-08 10:00:00 10.2 10 Sudoeste 16 Sudoeste 0 -- -- 8
2019-04-08 09:00:00 7.6 2 Este 12 Norte 0 -- -- 24
2019-04-08 08:00:00 2.9 6 Este 13 Norte 0 -- -- 28
2019-04-08 07:00:00 0.5 8 Norte 13 Noroeste 0 -- -- 35
2019-04-08 06:00:00 1.1 6 Nordeste 13 Noroeste 0 -- -- 38
2019-04-08 05:00:00 3.1 4 Nordeste 10 Oeste 0 -- -- 33
2019-04-08 04:00:00 2.5 4 Norte 12 Nordeste 0 -- -- 40
2019-04-08 03:00:00 1.9 6 Norte 14 Nordeste 0 -- -- 53
2019-04-08 02:00:00 3.2 8 Norte 20 Nordeste 0 -- -- 48
2019-04-08 01:00:00 3 6 Nordeste 18 Nordeste 0 -- -- 48
2019-04-08 00:00:00 4.3 12 Nordeste 16 Nordeste 0 -- -- 43
2019-04-07 23:00:00 4.6 4 Nordeste 11 Nordeste 0 -- -- 46
2019-04-07 22:00:00 6 0 Calma 17 Este 0 -- -- 47
2019-04-07 21:00:00 6.9 3 Nordeste 15 Sudoeste 0 -- -- 40
2019-04-07 20:00:00 10.6 15 Sudoeste 35 Sur 0 -- -- 42
2019-04-07 19:00:00 13.4 21 Sur 50 Sudoeste 0 -- -- 32
2019-04-07 18:00:00 15.3 10 Oeste 39 Sudoeste 0 -- -- 29
2019-04-07 17:00:00 13.2 25 Sudoeste 39 Sudoeste 0 -- -- 43
2019-04-07 16:00:00 14.1 21 Sudoeste 36 Sudoeste 0 -- -- 39
2019-04-07 15:00:00 12 14 Oeste 29 Oeste 0 -- -- 50
2019-04-07 14:00:00 12.1 9 Oeste 33 Sudoeste 0 -- -- 52
2019-04-07 13:00:00 11.9 13 Sudoeste 31 Sudoeste 0 -- -- 47
2019-04-07 12:00:00 11.9 10 Oeste 19 Sudoeste 0 -- -- 44
2019-04-07 11:00:00 10.8 9 Sur 16 Sudeste 0 -- -- 40
2019-04-07 10:00:00 8.6 8 Este 17 Nordeste 0 -- -- 46
2019-04-07 09:00:00 5.5 9 Nordeste 17 Este 0 -- -- 58
2019-04-07 08:00:00 1 2 Este 9 Nordeste 0 -- -- 73
2019-04-07 07:00:00 0.7 4 Nordeste 9 Norte 0 -- -- 74
2019-04-07 06:00:00 1.6 3 Nordeste 13 Norte 0 -- -- 72
2019-04-07 05:00:00 2.1 3 Nordeste 17 Este 0 -- -- 69
2019-04-07 04:00:00 2.8 10 Este 17 Norte 0 -- -- 67
2019-04-07 03:00:00 2.2 5 Nordeste 15 Este 0 -- -- 67
2019-04-07 02:00:00 4.4 9 Este 26 Este 0 -- -- 60
2019-04-07 01:00:00 4.9 14 Este 27 Este 0 -- -- 58
2019-04-07 00:00:00 5.5 13 Este 29 Este 0 -- -- 54
2019-04-06 23:00:00 6.1 19 Este 29 Este 0 -- -- 51
2019-04-06 22:00:00 7 16 Este 28 Este 0 -- -- 47
2019-04-06 21:00:00 8 17 Este 28 Sudeste 0 -- -- 40
2019-04-06 20:00:00 10.1 17 Este 30 Sudeste 0 -- -- 36
2019-04-06 19:00:00 12.9 10 Sur 35 Sudeste 0 -- -- 29
2019-04-06 18:00:00 14.2 20 Sur 33 Sur 0 -- -- 30
2019-04-06 17:00:00 14.8 22 Sudoeste 35 Sudeste 0 -- -- 31
2019-04-06 16:00:00 14.7 17 Sur 32 Sudoeste 0 -- -- 35
2019-04-06 15:00:00 14.1 17 Sudoeste 31 Sudoeste 0 -- -- 36
2019-04-06 14:00:00 12.3 17 Oeste 39 Oeste 0 -- -- 41
2019-04-06 13:00:00 13 13 Noroeste 48 Nordeste 0 -- -- 35
2019-04-06 12:00:00 13.9 32 Norte 55 Norte 0 -- -- 21
2019-04-06 11:00:00 12 24 Sudeste 40 Sudeste 0 -- -- 25
2019-04-06 10:00:00 10.1 9 Sudeste 22 Sudeste 0 -- -- 18
2019-04-06 09:00:00 5.4 10 Sur 24 Sudeste 0 -- -- 24
2019-04-06 08:00:00 -0.1 8 Nordeste 24 Este 0 -- -- 27
2019-04-06 07:00:00 4.3 17 Este 40 Este 0 -- -- 14
2019-04-06 06:00:00 3.2 16 Este 31 Este 0 -- -- 27
2019-04-06 05:00:00 -0.4 6 Norte 22 Nordeste 0 -- -- 69
2019-04-06 04:00:00 1.2 16 Este 30 Este 0 -- -- 67
2019-04-06 03:00:00 0.5 15 Nordeste 27 Nordeste 0 -- -- 72
2019-04-06 02:00:00 2.3 13 Este 33 Este 0 -- -- 54
2019-04-06 01:00:00 3.1 8 Este 17 Sudeste 0 -- -- 34
2019-04-06 00:00:00 3 8 Nordeste 18 Este 0 -- -- 28
2019-04-05 23:00:00 5.7 14 Sudeste 29 Sudeste 0 -- -- 20
2019-04-05 22:00:00 5.9 14 Sudeste 23 Sudeste 0 -- -- 27
2019-04-05 21:00:00 7.1 9 Este 23 Este 0 -- -- 19
2019-04-05 20:00:00 7.9 15 Sur 40 Sudoeste 0 -- -- 44
2019-04-05 19:00:00 11.7 17 Sudoeste 50 Oeste 0 -- -- 15
2019-04-05 18:00:00 13.1 24 Oeste 51 Noroeste 0 -- -- 15
2019-04-05 17:00:00 13.6 29 Norte 53 Norte 0 -- -- 11
2019-04-05 16:00:00 14.5 23 Norte 50 Sudeste 0 -- -- 11
2019-04-05 15:00:00 12.4 33 Sudeste 56 Este 0 -- -- 21
2019-04-05 14:00:00 11.2 22 Sur 48 Sudoeste 0 -- -- 30
2019-04-05 13:00:00 12.1 11 Nordeste 24 Oeste 0 -- -- 25
2019-04-05 12:00:00 10.7 9 Sudeste 44 Sudoeste 0 -- -- 29
2019-04-05 11:00:00 11.8 17 Sudoeste 43 Sur 0 -- -- 18
2019-04-05 10:00:00 9.7 9 Sudeste 16 Este 0 -- -- 29
2019-04-05 09:00:00 5.9 5 Este 27 Este 0 -- -- 40
2019-04-05 08:00:00 3.1 5 Nordeste 18 Este 0 -- -- 49
2019-04-05 07:00:00 3 14 Este 29 Este 0 -- -- 46
2019-04-05 06:00:00 -1.1 8 Norte 16 Este 0 -- -- 53
2019-04-05 05:00:00 -0.3 4 Norte 16 Norte 0 -- -- 49
2019-04-05 04:00:00 -1.3 3 Nordeste 14 Norte 0 -- -- 50
2019-04-05 03:00:00 -0.5 5 Nordeste 14 Norte 0 -- -- 53
2019-04-05 02:00:00 0.6 4 Norte 11 Norte 0 -- -- 47
2019-04-05 01:00:00 2.3 6 Este 15 Norte 0 -- -- 35
2019-04-05 00:00:00 1.4 9 Nordeste 15 Nordeste 0 -- -- 49
2019-04-04 23:00:00 0.9 7 Nordeste 17 Este 0 -- -- 70
2019-04-04 22:00:00 2.2 8 Este 29 Este 0 -- -- 75
2019-04-04 21:00:00 3.4 9 Este 15 Nordeste 0 -- -- 67
2019-04-04 20:00:00 4.8 8 Sur 24 Sur 0 -- -- 81
2019-04-04 19:00:00 8.2 10 Sudoeste 25 Oeste 0 -- -- 60
2019-04-04 18:00:00 9.2 10 Sudoeste 30 Oeste 0 -- -- 55
2019-04-04 17:00:00 8.4 11 Sudoeste 32 Sur 0 -- -- 62
2019-04-04 16:00:00 9.4 12 Sudoeste 30 Sudoeste 0 -- -- 57
2019-04-04 15:00:00 8.5 8 Sudeste 28 Este 0 -- -- 62
2019-04-04 14:00:00 8.1 12 Sudeste 31 Este 0 -- -- 68
2019-04-04 13:00:00 9.1 16 Sur 42 Sudeste 0 -- -- 56
2019-04-04 12:00:00 8.6 11 Sur 52 Sudeste 0 -- -- 62
2019-04-04 11:00:00 6.6 25 Este 49 Este 0 -- -- 65
2019-04-04 10:00:00 5.6 30 Este 50 Este 0 -- -- 61
2019-04-04 09:00:00 2.3 27 Este 36 Este 0 -- -- 79
2019-04-04 08:00:00 -1.5 5 Noroeste 19 Norte 0 -- -- 91
2019-04-04 07:00:00 -1.9 8 Nordeste 15 Norte 0 -- -- 95
2019-04-04 06:00:00 -1.5 11 Este 16 Este 0 -- -- 94
2019-04-04 05:00:00 -2.8 9 Nordeste 10 Nordeste 0 -- -- 95
2019-04-04 04:00:00 -1.9 4 Nordeste 10 Nordeste 0 -- -- 91
2019-04-04 03:00:00 -0.7 2 Oeste 13 Sur 0 -- -- 85
2019-04-04 02:00:00 0.9 10 Sur 18 Sudoeste 0 -- -- 82
2019-04-04 01:00:00 0.2 8 Sur 10 Sur 0 -- -- 68
2019-04-04 00:00:00 -0.3 2 Noroeste 12 Sur 0 -- -- 73
2019-04-03 23:00:00 1.7 0 Calma 25 Sur 0 -- -- 61
2019-04-03 22:00:00 3 12 Sur 31 Sudoeste 0 -- -- 61
2019-04-03 21:00:00 3.5 13 Sur 39 Sudoeste 0 -- -- 64
2019-04-03 20:00:00 4.6 19 Sudoeste 49 Sur 0 -- -- 49
2019-04-03 19:00:00 6.3 27 Sur 53 Sudoeste 0 -- -- 42
2019-04-03 18:00:00 6.8 21 Sudoeste 51 Sudoeste 0 -- -- 43
2019-04-03 17:00:00 8 16 Sudoeste 33 Oeste 0 -- -- 34
2019-04-03 16:00:00 8.2 19 Sudoeste 38 Sur 0 -- -- 44
2019-04-03 15:00:00 6.9 15 Sudoeste 31 Sudoeste 0 -- -- 55
2019-04-03 14:00:00 5.6 13 Oeste 27 Sudoeste 0 -- -- 65
2019-04-03 13:00:00 6.9 12 Oeste 23 Sudoeste 0 -- -- 61
2019-04-03 12:00:00 6.9 10 Sudoeste 21 Sudoeste 0 -- -- 60
2019-04-03 11:00:00 5.7 5 Sur 13 Sudoeste 0 -- -- 58
2019-04-03 10:00:00 3.9 6 Sur 11 Sudoeste 0 -- -- 61
2019-04-03 09:00:00 1.2 4 Sudoeste 8 Sudoeste 0 -- -- 58
2019-04-03 08:00:00 -1.8 5 Sudeste 7 Sudeste 0 -- -- 61
2019-04-03 07:00:00 -0.8 0 Calma 10 Sudoeste 0 -- -- 63
2019-04-03 06:00:00 -0.4 7 Sudoeste 14 Sudoeste 0 -- -- 68
2019-04-03 05:00:00 -0.2 4 Sudoeste 10 Sudoeste 0 -- -- 72
2019-04-03 04:00:00 0.4 4 Sudoeste 8 Sudoeste 0 -- -- 66
2019-04-03 03:00:00 0.4 2 Sudoeste 7 Oeste 0 -- -- 64
2019-04-03 02:00:00 0.2 0 Calma 7 Oeste 0 -- -- 63
2019-04-03 01:00:00 0.6 3 Noroeste 9 Oeste 0 -- -- 61
2019-04-03 00:00:00 1.2 3 Oeste 6 Sudoeste 0 -- -- 60
2019-04-02 23:00:00 1.3 0 Calma 5 Oeste 0 -- -- 76
2019-04-02 22:00:00 2.8 3 Sur 9 Sur 0 -- -- 72
2019-04-02 21:00:00 3.6 3 Sur 22 Sudoeste 0 -- -- 81
2019-04-02 20:00:00 5.9 9 Sur 22 Sudoeste 0 -- -- 64
2019-04-02 19:00:00 8.4 10 Oeste 24 Sudoeste 0 -- -- 58
2019-04-02 18:00:00 8.9 10 Sudoeste 33 Sudoeste 0 -- -- 59
2019-04-02 17:00:00 9.1 10 Oeste 27 Oeste 0 -- -- 62
2019-04-02 16:00:00 8.9 13 Sudoeste 30 Sudoeste 0 -- -- 69
2019-04-02 15:00:00 8 14 Sudoeste 31 Sudoeste 0 -- -- 79
2019-04-02 14:00:00 8.1 13 Sudoeste 19 Sudoeste 0 -- -- 86
2019-04-02 13:00:00 6.2 13 Sudoeste 24 Sudoeste 0.2 -- -- 95
2019-04-02 12:00:00 4.7 4 Oeste 9 Oeste 0.4 -- -- 95
2019-04-02 11:00:00 3.2 2 Sur 20 Sur 3.4 -- -- 94
2019-04-02 10:00:00 3.9 10 Sudoeste 23 Sudoeste 1.2 -- -- 94
2019-04-02 09:00:00 3.3 8 Sudoeste 27 Sudoeste 0 -- -- 97
2019-04-02 08:00:00 3.2 17 Sudoeste 34 Sudoeste 0 -- -- 95
2019-04-02 07:00:00 2.8 10 Sudoeste 27 Oeste 0.2 -- -- 98
2019-04-02 06:00:00 2.9 10 Sudoeste 22 Sur 0.4 -- -- 97
2019-04-02 05:00:00 3.2 9 Sudoeste 23 Sur 0 -- -- 97
2019-04-02 04:00:00 3.8 10 Sur 25 Sur 0 -- -- 96
2019-04-02 03:00:00 3.7 7 Sudoeste 30 Sur 0.2 -- -- 97
2019-04-02 02:00:00 3.7 13 Sur 30 Sur 0 -- -- 99
2019-04-02 01:00:00 3.4 5 Sur 20 Sudeste 0.2 -- -- 97
2019-04-02 00:00:00 3.3 2 Noroeste 15 Sudoeste 0.6 -- -- 98
2019-04-01 23:00:00 4 5 Sudoeste 18 Sudoeste 0 -- -- 99
2019-04-01 22:00:00 3.9 13 Sudoeste 22 Sudoeste 0 -- -- 99
2019-04-01 21:00:00 4.1 16 Sudoeste 27 Sudoeste 0.2 -- -- 99
2019-04-01 20:00:00 4.3 8 Sudoeste 26 Sur 0.2 -- -- 96
2019-04-01 19:00:00 4.7 9 Sudoeste 18 Sudoeste 0.2 -- -- 95
2019-04-01 18:00:00 7.1 14 Sudoeste 22 Sur 0 -- -- 79
2019-04-01 17:00:00 5.5 12 Sudoeste 22 Sudoeste 0 -- -- 92
2019-04-01 16:00:00 6.7 17 Sudoeste 26 Sudoeste 0 -- -- 78
2019-04-01 15:00:00 6.7 11 Oeste 26 Sudoeste 0 -- -- 77
2019-04-01 14:00:00 7.2 16 Oeste 27 Noroeste 0 -- -- 70
2019-04-01 13:00:00 8.4 14 Sudoeste 31 Sur 0 -- -- 65
2019-04-01 12:00:00 8.5 10 Sudoeste 22 Sudoeste 0 -- -- 54
2019-04-01 11:00:00 6.3 9 Oeste 16 Oeste 0 -- -- 62
2019-04-01 10:00:00 4.1 5 Oeste 10 Oeste 0 -- -- 71
2019-04-01 09:00:00 1.8 3 Sudoeste 8 Oeste 0 -- -- 77
2019-04-01 08:00:00 -0.5 2 Sudoeste 7 Norte 0 -- -- 77
2019-04-01 07:00:00 -2.5 2 Nordeste 8 Norte 0 -- -- 81
2019-04-01 06:00:00 -0.3 3 Sudoeste 9 Norte 0 -- -- 73
2019-04-01 05:00:00 -1 0 Calma 6 Norte 0 -- -- 83
2019-04-01 04:00:00 -1.6 0 Calma 6 Norte 0 -- -- 87
2019-04-01 03:00:00 -1.5 2 Norte 4 Noroeste 0 -- -- 82
2019-04-01 02:00:00 -0.7 0 Calma 5 Sudoeste 0 -- -- 88
2019-04-01 01:00:00 1 2 Sur 11 Sur 0 -- -- 79
2019-04-01 00:00:00 1.2 0 Calma 8 Sur 0 -- -- 86
2019-03-31 23:00:00 2 0 Calma 14 Sur 0 -- -- 85
2019-03-31 22:00:00 3.2 8 Sur 21 Sudoeste 0 -- -- 86
2019-03-31 21:00:00 3.4 13 Sur 33 Sudoeste 0 -- -- 86
2019-03-31 20:00:00 4.4 19 Sur 45 Sur 0 -- -- 81
2019-03-31 19:00:00 6.4 18 Sudoeste 43 Sur 0 -- -- 73
2019-03-31 18:00:00 6.7 24 Sur 51 Sudoeste 0 -- -- 73
2019-03-31 17:00:00 7.2 27 Sudoeste 46 Sudoeste 0 -- -- 69
2019-03-31 16:00:00 8.2 26 Sur 49 Sudoeste 0 -- -- 63
2019-03-31 15:00:00 8.5 24 Sudoeste 51 Sudoeste 0 -- -- 67
2019-03-31 14:00:00 7.7 26 Sudoeste 44 Sudoeste 0 -- -- 72
2019-03-31 13:00:00 9.3 14 Oeste 29 Oeste 0 -- -- 64
2019-03-31 12:00:00 9 8 Sudoeste 21 Sudoeste 0 -- -- 51
2019-03-31 11:00:00 7.1 9 Sudoeste 15 Sur 0 -- -- 56
2019-03-31 10:00:00 6 9 Este 16 Este 0 -- -- 63
2019-03-31 09:00:00 0.4 6 Nordeste 15 Norte 0 -- -- 91
2019-03-31 08:00:00 -2.1 3 Este 16 Este 0 -- -- 89
2019-03-31 07:00:00 -2.9 7 Norte 17 Nordeste 0 -- -- 92
2019-03-31 06:00:00 -2.2 2 Nordeste 22 Nordeste 0 -- -- 86
2019-03-31 05:00:00 0.1 17 Nordeste 22 Nordeste 0 -- -- 79
2019-03-31 04:00:00 -2.2 11 Nordeste 17 Nordeste 0 -- -- 78
2019-03-31 00:00:00 -1.1 4 Norte 15 Norte 0 -- -- 69
2019-03-30 23:00:00 0.3 3 Sudeste 13 Nordeste 0 -- -- 69
2019-03-30 22:00:00 1 4 Nordeste 18 Nordeste 0 -- -- 69
2019-03-30 21:00:00 1.7 8 Este 19 Este 0 -- -- 69
2019-03-30 20:00:00 2.4 7 Este 17 Sur 0 -- -- 68
2019-03-30 19:00:00 4.2 12 Sudoeste 35 Sur 0 -- -- 66
2019-03-30 18:00:00 5.8 20 Sur 40 Sudoeste 0 -- -- 67
2019-03-30 17:00:00 6.9 19 Sudoeste 55 Sur 0 -- -- 63
2019-03-30 16:00:00 5.9 32 Sur 60 Sudoeste 0 -- -- 73
2019-03-30 15:00:00 6.9 19 Sudoeste 49 Sudoeste 0 -- -- 67
2019-03-30 14:00:00 6.8 13 Sudoeste 27 Sudoeste 0 -- -- 64
2019-03-30 13:00:00 6.8 12 Sur 22 Sur 0 -- -- 67
2019-03-30 12:00:00 7.7 14 Sur 23 Sur 0 -- -- 67
2019-03-30 11:00:00 7 8 Sudoeste 18 Sudoeste 0 -- -- 56
2019-03-30 10:00:00 4.9 5 Sur 13 Sudoeste 0 -- -- 63
2019-03-30 09:00:00 2.4 5 Sudeste 17 Este 0 -- -- 81
2019-03-30 08:00:00 -0.9 8 Este 15 Nordeste 0 -- -- 90
2019-03-30 07:00:00 -3 3 Nordeste 9 Norte 0 -- -- 91
2019-03-30 06:00:00 -2.6 3 Nordeste 8 Norte 0 -- -- 90
2019-03-30 05:00:00 -3.6 3 Norte 8 Norte 0 -- -- 87
2019-03-30 04:00:00 -2.8 3 Nordeste 9 Norte 0 -- -- 90
2019-03-30 03:00:00 -2 0 Calma 4 Norte 0 -- -- 91
2019-03-30 02:00:00 -2.3 0 Calma 11 Nordeste 0 -- -- 94
2019-03-30 01:00:00 -2.4 4 Nordeste 8 Norte 0 -- -- 87
2019-03-30 00:00:00 -1.6 3 Norte 5 Norte 0 -- -- 87
2019-03-29 23:00:00 -0.4 0 Calma 4 Noroeste 0 -- -- 82
2019-03-29 22:00:00 0.1 0 Calma 5 Sudoeste 0 -- -- 80
2019-03-29 21:00:00 1.9 5 Sudoeste 10 Oeste 0 -- -- 73
2019-03-29 20:00:00 2.5 6 Oeste 18 Oeste 0 -- -- 74
2019-03-29 19:00:00 3.9 8 Sur 22 Sudoeste 0 -- -- 78
2019-03-29 18:00:00 6.1 10 Sudoeste 21 Oeste 0 -- -- 67
2019-03-29 17:00:00 7.4 12 Sudoeste 27 Sudeste 0 -- -- 64
2019-03-29 16:00:00 8.7 18 Sur 28 Sur 0 -- -- 58
2019-03-29 15:00:00 8.8 15 Sur 30 Sur 0 -- -- 59
2019-03-29 14:00:00 8.5 14 Sur 21 Sur 0 -- -- 56
2019-03-29 13:00:00 7.7 10 Sur 22 Sur 0 -- -- 60
2019-03-29 12:00:00 5.3 6 Sur 17 Sudoeste 0 -- -- 80
2019-03-29 11:00:00 4.7 6 Sur 14 Sudeste 0 -- -- 84
2019-03-29 10:00:00 4.5 6 Sudoeste 10 Sudoeste 0 -- -- 67
2019-03-29 09:00:00 3 4 Sudoeste 11 Sudoeste 0 -- -- 62
2019-03-29 08:00:00 0.9 0 Calma 9 Norte 0 -- -- 81
2019-03-29 07:00:00 -2.1 5 Nordeste 7 Nordeste 0 -- -- 86
2019-03-29 06:00:00 -1.6 6 Norte 10 Oeste 0 -- -- 89
2019-03-29 05:00:00 -0.5 2 Nordeste 6 Norte 0 -- -- 85
2019-03-29 04:00:00 -0.8 3 Nordeste 7 Sudoeste 0 -- -- 89
2019-03-29 03:00:00 -0.9 4 Norte 7 Oeste 0 -- -- 90
2019-03-29 02:00:00 0.2 4 Noroeste 8 Norte 0 -- -- 88
2019-03-29 01:00:00 0.5 3 Nordeste 6 Sur 0 -- -- 95
2019-03-29 00:00:00 0.8 2 Nordeste 5 Sudoeste 0 -- -- 93
2019-03-28 23:00:00 1.9 2 Noroeste 7 Norte 0 -- -- 92
2019-03-28 22:00:00 1.9 4 Sudeste 8 Sur 0 -- -- 87
2019-03-28 21:00:00 1.6 0 Calma 6 Noroeste 0 -- -- 95
2019-03-28 20:00:00 3.2 2 Sudeste 13 Sudoeste 0 -- -- 91
2019-03-28 19:00:00 3.7 8 Sudoeste 20 Sudoeste 0 -- -- 93
2019-03-28 18:00:00 4.7 4 Sudoeste 18 Sur 0 -- -- 91
2019-03-28 17:00:00 4.4 13 Sudoeste 22 Sudoeste 0.2 -- -- 98
2019-03-28 16:00:00 4.9 9 Sudoeste 19 Sudoeste 0.6 -- -- 95
2019-03-28 15:00:00 5.1 6 Sudoeste 15 Sudoeste 0.6 -- -- 90
2019-03-28 14:00:00 4.8 6 Sur 18 Sur 0.2 -- -- 91
2019-03-28 13:00:00 5.9 10 Sudeste 19 Sudoeste 0 -- -- 90
2019-03-28 12:00:00 6.1 12 Sudoeste 23 Sudoeste 0 -- -- 77
2019-03-28 11:00:00 7.6 14 Sur 23 Sur 0 -- -- 68
2019-03-28 10:00:00 6.1 6 Sudoeste 12 Sudoeste 0 -- -- 74
2019-03-28 09:00:00 4.5 6 Este 10 Este 0 -- -- 79
2019-03-28 08:00:00 0.4 4 Nordeste 6 Nordeste 0 -- -- 91
2019-03-28 07:00:00 -1 0 Calma 5 Norte 0 -- -- 90
2019-03-28 06:00:00 -1.2 6 Nordeste 12 Este 0 -- -- 94
2019-03-28 05:00:00 -0.9 4 Norte 5 Norte 0 -- -- 92
2019-03-28 04:00:00 -0.3 3 Norte 5 Norte 0 -- -- 91
2019-03-28 03:00:00 -0.2 5 Norte 7 Norte 0 -- -- 92
2019-03-28 02:00:00 0.3 0 Calma 6 Norte 0 -- -- 89
2019-03-28 01:00:00 -0.6 6 Norte 8 Norte 0 -- -- 91
2019-03-28 00:00:00 0.1 2 Nordeste 6 Norte 0 -- -- 96
2019-03-27 23:00:00 0.2 2 Este 7 Norte 0 -- -- 96
2019-03-27 22:00:00 0.3 5 Norte 7 Norte 0 -- -- 94
2019-03-27 21:00:00 2.3 0 Calma 9 Sudoeste 0 -- -- 88
2019-03-27 20:00:00 2.9 2 Sur 5 Sudoeste 0 -- -- 91
2019-03-27 19:00:00 3.9 3 Sudoeste 13 Noroeste 0 -- -- 85
2019-03-27 18:00:00 3.8 6 Norte 13 Norte 0.4 -- -- 90
2019-03-27 17:00:00 4.7 8 Noroeste 15 Noroeste 0 -- -- 89
2019-03-27 16:00:00 5.8 4 Sudeste 15 Oeste 0.8 -- -- 91
2019-03-27 15:00:00 4.5 6 Sur 18 Sudoeste 2.6 -- -- 94
2019-03-27 14:00:00 5.2 8 Sur 24 Sudoeste 0.4 -- -- 87
2019-03-27 13:00:00 10.5 12 Sur 31 Sur 0 -- -- 52
2019-03-27 12:00:00 9.5 18 Sur 28 Sur 0 -- -- 58
2019-03-27 11:00:00 9.4 15 Sur 24 Sur 0 -- -- 58
2019-03-27 10:00:00 8.1 8 Sudeste 19 Este 0 -- -- 56
2019-03-27 09:00:00 6.6 13 Este 19 Este 0 -- -- 53
2019-03-27 08:00:00 3.5 5 Este 10 Este 0 -- -- 62
2019-03-27 07:00:00 -0.5 2 Nordeste 20 Nordeste 0 -- -- 84
2019-03-27 06:00:00 1.4 14 Este 22 Este 0 -- -- 79
2019-03-27 05:00:00 1.7 14 Este 24 Este 0 -- -- 82
2019-03-27 04:00:00 1.4 5 Este 33 Este 0 -- -- 80
2019-03-27 03:00:00 1.3 18 Este 33 Este 0 -- -- 90
2019-03-27 02:00:00 0.4 6 Nordeste 21 Este 0 -- -- 78
2019-03-27 01:00:00 1.3 13 Este 20 Este 0 -- -- 76
2019-03-27 00:00:00 0.9 4 Nordeste 17 Este 0 -- -- 82
2019-03-26 23:00:00 3.1 9 Este 24 Sudeste 0 -- -- 65
2019-03-26 22:00:00 4 16 Nordeste 31 Este 0 -- -- 60
2019-03-26 21:00:00 2.5 6 Norte 18 Sudoeste 0 -- -- 86
2019-03-26 20:00:00 4.5 8 Sudoeste 42 Este 0 -- -- 86
2019-03-26 19:00:00 6.9 15 Nordeste 34 Este 0 -- -- 50
2019-03-26 18:00:00 8.3 10 Sudoeste 23 Oeste 0 -- -- 71
2019-03-26 17:00:00 8.7 6 Sudoeste 28 Oeste 0 -- -- 73
2019-03-26 16:00:00 9.3 16 Sur 32 Sudeste 0 -- -- 66
2019-03-26 15:00:00 9.9 8 Sudoeste 31 Sur 0 -- -- 63
2019-03-26 14:00:00 10 18 Sudoeste 29 Sudoeste 0 -- -- 59
2019-03-26 13:00:00 9.3 9 Sudoeste 33 Este 0 -- -- 63
2019-03-26 12:00:00 9.5 15 Este 32 Nordeste 0 -- -- 50
2019-03-26 11:00:00 7.2 23 Este 42 Este 0 -- -- 60
2019-03-26 10:00:00 5.5 12 Sudeste 21 Sudeste 0 -- -- 71
2019-03-26 09:00:00 3.2 6 Sur 13 Sudoeste 0.2 -- -- 82
2019-03-26 08:00:00 0.2 7 Este 15 Nordeste 0 -- -- 96
2019-03-26 07:00:00 -1.2 4 Norte 19 Nordeste 0 -- -- 92
2019-03-26 06:00:00 0.2 13 Nordeste 20 Nordeste 0 -- -- 92
2019-03-26 05:00:00 0 13 Este 16 Este 0 -- -- 93
2019-03-26 04:00:00 -0.6 11 Este 18 Este 0 -- -- 98
2019-03-26 03:00:00 -1.2 2 Nordeste 6 Norte 0 -- -- 97
2019-03-26 02:00:00 -0.8 0 Calma 8 Norte 0 -- -- 95
2019-03-26 01:00:00 0 0 Calma 11 Nordeste 0 -- -- 95
2019-03-26 00:00:00 0.9 8 Nordeste 12 Este 0 -- -- 93
2019-03-25 23:00:00 0.1 5 Nordeste 11 Este 0 -- -- 97
2019-03-25 22:00:00 0.3 3 Nordeste 9 Norte 0 -- -- 97
2019-03-25 21:00:00 0.7 2 Nordeste 5 Norte 0 -- -- 95
2019-03-25 20:00:00 1.4 4 Norte 14 Sur 0 -- -- 92
2019-03-25 19:00:00 3.2 8 Sur 15 Sudeste 0 -- -- 79
2019-03-25 18:00:00 3.2 12 Sudeste 19 Sur 0 -- -- 89
2019-03-25 17:00:00 4.3 8 Sur 17 Sudoeste 0 -- -- 88
2019-03-25 16:00:00 4 8 Sur 19 Sur 0.2 -- -- 91
2019-03-25 15:00:00 4.6 8 Sur 32 Sur 0.6 -- -- 84
2019-03-25 14:00:00 4.1 16 Sudoeste 31 Sudoeste 0 -- -- 83
2019-03-25 13:00:00 2.8 6 Sudoeste 21 Sudoeste 1.8 -- -- 96
2019-03-25 12:00:00 1.8 9 Sudoeste 18 Sudoeste 2.6 -- -- 94
2019-03-25 11:00:00 2.5 3 Sudoeste 35 Sudoeste 3.4 -- -- 89
2019-03-25 10:00:00 1.9 12 Sur 22 Sur 2 -- -- 91
2019-03-25 09:00:00 0.3 3 Noroeste 14 Oeste 0.6 -- -- 96
2019-03-25 08:00:00 1.9 4 Oeste 18 Sudoeste 1.4 -- -- 90
2019-03-25 07:00:00 3.9 13 Sudoeste 24 Sudoeste 0 -- -- 75
2019-03-25 06:00:00 3.8 12 Sudoeste 23 Sudoeste 0 -- -- 73
2019-03-25 05:00:00 3.5 12 Sudoeste 24 Sudoeste 0 -- -- 79
2019-03-25 04:00:00 2.7 0 Calma 18 Sudoeste 0 -- -- 84
2019-03-25 03:00:00 2.4 4 Sudoeste 12 Sudoeste 0 -- -- 82
2019-03-25 02:00:00 1.8 4 Sudoeste 10 Sudoeste 0 -- -- 81
2019-03-25 01:00:00 1.3 6 Sudoeste 10 Sudoeste 0 -- -- 83
2019-03-25 00:00:00 0.2 0 Calma 5 Sur 0 -- -- 86